createdAt,value
2019-05-07T00:02:38.311Z,4.25
2019-05-07T00:05:33.135Z,3.27
2019-05-07T00:08:23.012Z,6.55
2019-05-07T00:11:22.486Z,5.72
2019-05-07T00:14:24.756Z,6.67
2019-05-07T00:17:15.625Z,6.60
2019-05-07T00:20:16.105Z,6.17
2019-05-07T00:23:09.163Z,4.50
2019-05-07T00:26:02.382Z,5.70
2019-05-07T00:28:56.042Z,3.98
2019-05-07T00:31:49.101Z,6.05
2019-05-07T00:34:45.992Z,5.47
2019-05-07T00:37:53.228Z,4.80
2019-05-07T00:41:00.266Z,4.90
2019-05-07T00:43:55.115Z,4.33
2019-05-07T00:46:48.176Z,4.72
2019-05-07T00:49:42.588Z,3.50
2019-05-07T00:52:33.769Z,4.47
2019-05-07T00:55:26.824Z,4.17
2019-05-07T00:58:24.188Z,4.92
2019-05-07T01:01:14.992Z,5.47
2019-05-07T01:04:08.042Z,4.53
2019-05-07T01:07:02.770Z,5.15
2019-05-07T01:09:54.152Z,4.30
2019-05-07T01:12:59.404Z,5.50
2019-05-07T01:15:53.433Z,4.35
2019-05-07T01:18:42.540Z,4.55
2019-05-07T01:21:43.531Z,5.10
2019-05-07T01:24:32.733Z,5.03
2019-05-07T01:27:25.547Z,4.40
2019-05-07T01:30:19.883Z,3.72
2019-05-07T01:33:17.031Z,4.00
2019-05-07T01:36:22.683Z,4.22
2019-05-07T01:39:13.092Z,4.30
2019-05-07T01:42:04.390Z,3.70
2019-05-07T01:44:57.703Z,3.77
2019-05-07T01:47:53.208Z,4.30
2019-05-07T01:50:47.415Z,3.77
2019-05-07T01:53:42.828Z,3.27
2019-05-07T01:56:36.331Z,4.58
2019-05-07T01:59:29.386Z,5.12
2019-05-07T02:02:47.782Z,3.70
2019-05-07T02:05:49.799Z,5.08
2019-05-07T02:09:02.346Z,3.70
2019-05-07T02:11:57.928Z,3.37
2019-05-07T02:14:53.064Z,3.40
2019-05-07T02:17:44.297Z,4.20
2019-05-07T02:20:37.352Z,5.05
2019-05-07T02:23:33.506Z,3.45
2019-05-07T02:26:26.534Z,3.00
2019-05-07T02:29:23.178Z,5.58
2019-05-07T02:32:13.484Z,3.40
2019-05-07T02:35:05.722Z,3.77
2019-05-07T02:38:03.332Z,5.22
2019-05-07T02:41:02.875Z,5.03
2019-05-07T02:43:55.117Z,5.33
2019-05-07T02:46:59.446Z,5.97
2019-05-07T02:50:03.355Z,3.77
2019-05-07T02:53:22.877Z,3.92
2019-05-07T02:56:15.720Z,4.80
2019-05-07T02:59:08.779Z,5.08
2019-05-07T03:02:03.606Z,4.67
2019-05-07T03:04:54.636Z,6.08
2019-05-07T03:07:47.435Z,5.30
2019-05-07T03:10:34.866Z,4.28
2019-05-07T03:13:27.661Z,3.33
2019-05-07T03:16:37.382Z,3.62
2019-05-07T03:19:13.768Z,4.20
2019-05-07T03:22:09.898Z,3.22
2019-05-07T03:25:06.281Z,4.05
2019-05-07T03:27:59.338Z,5.45
2019-05-07T03:31:05.385Z,5.97
2019-05-07T03:33:59.285Z,5.58
2019-05-07T03:37:09.481Z,5.87
2019-05-07T03:40:03.826Z,5.60
2019-05-07T03:42:55.344Z,5.87
2019-05-07T03:45:59.147Z,3.20
2019-05-07T03:48:55.531Z,6.78
2019-05-07T03:51:45.971Z,6.47
2019-05-07T03:54:42.841Z,3.55
2019-05-07T03:57:33.336Z,2.72
2019-05-07T04:00:29.038Z,3.52
2019-05-07T04:03:24.267Z,3.20
2019-05-07T04:06:23.360Z,2.87
2019-05-07T04:09:15.368Z,2.98
2019-05-07T04:12:08.431Z,6.92
2019-05-07T04:15:03.412Z,4.10
2019-05-07T04:17:54.285Z,5.72
2019-05-07T04:20:47.335Z,3.85
2019-05-07T04:23:43.283Z,5.20
2019-05-07T04:26:44.715Z,7.70
2019-05-07T04:29:37.768Z,4.12
2019-05-07T04:32:33.250Z,3.58
2019-05-07T04:35:43.698Z,3.72
2019-05-07T04:38:36.647Z,3.45
2019-05-07T04:41:32.648Z,6.08
2019-05-07T04:44:23.474Z,5.78
2019-05-07T04:47:13.279Z,6.28
2019-05-07T04:50:03.713Z,4.40
2019-05-07T04:52:54.143Z,4.30
2019-05-07T04:55:46.794Z,5.72
2019-05-07T04:58:39.852Z,5.03
2019-05-07T05:01:32.995Z,4.05
2019-05-07T05:04:34.039Z,4.97
2019-05-07T05:07:18.767Z,4.58
2019-05-07T05:10:08.427Z,3.83
2019-05-07T05:13:03.184Z,4.83
2019-05-07T05:15:56.904Z,4.40
2019-05-07T05:18:51.711Z,3.85
2019-05-07T05:22:02.005Z,4.90
2019-05-07T05:24:54.250Z,4.65
2019-05-07T05:27:47.305Z,4.92
2019-05-07T05:30:57.259Z,3.77
2019-05-07T05:33:52.558Z,3.52
2019-05-07T05:36:50.539Z,4.95
2019-05-07T05:39:43.592Z,4.58
2019-05-07T05:42:43.815Z,4.15
2019-05-07T05:45:53.109Z,3.70
2019-05-07T05:48:46.057Z,4.25
2019-05-07T05:52:02.061Z,5.67
2019-05-07T05:55:04.936Z,3.85
2019-05-07T05:58:17.962Z,5.40
2019-05-07T06:01:25.608Z,3.42
2019-05-07T06:04:27.886Z,3.60
2019-05-07T06:07:26.056Z,4.03
2019-05-07T06:10:38.838Z,4.08
2019-05-07T06:13:43.401Z,5.22
2019-05-07T06:16:39.300Z,3.17
2019-05-07T06:19:42.514Z,3.75
2019-05-07T06:22:44.583Z,3.60
2019-05-07T06:25:37.896Z,3.30
2019-05-07T06:28:32.970Z,3.55
2019-05-07T06:31:24.263Z,3.42
2019-05-07T06:34:17.319Z,4.00
2019-05-07T06:37:11.875Z,2.90
2019-05-07T06:40:19.404Z,3.60
2019-05-07T06:43:17.738Z,3.45
2019-05-07T06:46:12.612Z,3.37
2019-05-07T06:49:08.200Z,3.08
2019-05-07T06:52:03.061Z,3.40
2019-05-07T06:54:57.384Z,4.42
2019-05-07T06:57:50.185Z,4.00
2019-05-07T07:00:49.135Z,2.77
2019-05-07T07:03:44.236Z,2.92
2019-05-07T07:06:40.119Z,3.87
2019-05-07T07:09:48.012Z,3.42
2019-05-07T07:12:43.367Z,3.20
2019-05-07T07:15:36.682Z,4.50
2019-05-07T07:18:29.478Z,4.05
2019-05-07T07:21:22.281Z,3.22
2019-05-07T07:24:12.818Z,3.58
2019-05-07T07:27:02.445Z,3.33
2019-05-07T07:33:02.809Z,3.20
2019-05-07T07:35:54.222Z,4.17
2019-05-07T07:38:52.695Z,2.83
2019-05-07T07:42:08.234Z,3.83
2019-05-07T07:45:03.006Z,4.33
2019-05-07T07:47:54.355Z,4.05
2019-05-07T07:50:47.404Z,2.98
2019-05-07T07:53:42.504Z,4.78
2019-05-07T07:56:50.191Z,3.62
2019-05-07T07:59:44.231Z,4.78
2019-05-07T08:05:55.946Z,3.65
2019-05-07T08:08:48.742Z,3.17
2019-05-07T08:11:42.507Z,3.60
2019-05-07T08:14:32.487Z,3.95
2019-05-07T08:17:24.072Z,3.25
2019-05-07T08:20:17.130Z,2.52
2019-05-07T08:23:12.053Z,4.05
2019-05-07T08:26:03.238Z,3.08
2019-05-07T08:28:52.506Z,2.95
2019-05-07T08:31:59.336Z,2.70
2019-05-07T08:34:59.305Z,3.05
2019-05-07T08:38:02.167Z,2.90
2019-05-07T08:40:52.843Z,2.83
2019-05-07T08:43:45.899Z,3.10
2019-05-07T08:46:52.101Z,2.75
2019-05-07T08:49:43.662Z,2.67
2019-05-07T08:52:32.770Z,3.02
2019-05-07T08:55:25.547Z,2.75
2019-05-07T08:58:18.601Z,3.25
2019-05-07T09:01:12.942Z,2.40
2019-05-07T09:04:06.504Z,2.25
2019-05-07T09:06:59.561Z,2.33
2019-05-07T09:09:52.620Z,3.67
2019-05-07T09:12:45.674Z,3.02
2019-05-07T09:15:38.729Z,2.87
2019-05-07T09:18:32.221Z,3.10
2019-05-07T09:21:25.353Z,2.75
2019-05-07T09:24:18.151Z,2.92
2019-05-07T09:30:55.209Z,1.82
2019-05-07T09:33:52.191Z,3.00
2019-05-07T09:36:47.977Z,3.15
2019-05-07T09:39:42.728Z,2.95
2019-05-07T09:42:34.088Z,2.45
2019-05-07T09:45:27.155Z,2.35
2019-05-07T09:48:22.009Z,2.22
2019-05-07T09:51:12.745Z,2.30
2019-05-07T09:54:05.801Z,1.80
2019-05-07T09:56:58.602Z,2.35
2019-05-07T09:59:53.128Z,2.77
2019-05-07T10:02:44.968Z,1.67
2019-05-07T10:05:39.047Z,2.65
2019-05-07T10:08:31.917Z,2.10
2019-05-07T10:11:24.904Z,2.25
2019-05-07T10:14:25.390Z,2.42
2019-05-07T10:17:23.561Z,2.20
2019-05-07T10:20:22.542Z,2.30
2019-05-07T10:23:05.578Z,2.50
2019-05-07T10:25:58.378Z,2.10
2019-05-07T10:28:52.876Z,2.27
2019-05-07T10:31:44.490Z,2.42
2019-05-07T10:34:37.546Z,1.87
2019-05-07T10:37:38.036Z,2.17
2019-05-07T10:40:32.729Z,1.75
2019-05-07T10:43:24.137Z,1.75
2019-05-07T10:46:37.164Z,2.30
2019-05-07T10:49:36.617Z,2.30
2019-05-07T10:52:29.417Z,2.10
2019-05-07T10:55:22.470Z,2.20
2019-05-07T10:58:15.537Z,2.15
2019-05-07T11:01:08.583Z,2.83
2019-05-07T11:04:04.462Z,1.92
2019-05-07T11:07:04.937Z,1.92
2019-05-07T11:09:57.736Z,2.40
2019-05-07T11:12:53.865Z,2.10
2019-05-07T11:15:57.927Z,2.47
2019-05-07T11:18:57.900Z,1.95
2019-05-07T11:21:47.016Z,2.52
2019-05-07T11:24:39.910Z,2.00
2019-05-07T11:27:33.229Z,2.30
2019-05-07T11:30:22.928Z,2.15
2019-05-07T11:33:15.498Z,2.15
2019-05-07T11:36:04.651Z,2.33
2019-05-07T11:38:58.536Z,2.10
2019-05-07T11:42:05.673Z,1.45
2019-05-07T11:44:58.728Z,2.25
2019-05-07T11:47:51.787Z,1.60
2019-05-07T11:51:01.518Z,1.82
2019-05-07T11:53:42.188Z,2.20
2019-05-07T11:56:35.306Z,2.47
2019-05-07T11:59:28.104Z,2.05
2019-05-07T12:02:28.587Z,2.05
2019-05-07T12:05:22.683Z,2.30
2019-05-07T12:08:14.699Z,1.47
2019-05-07T12:11:07.751Z,1.87
2019-05-07T12:14:03.365Z,1.98
2019-05-07T12:16:56.171Z,1.90
2019-05-07T12:19:49.223Z,1.98
2019-05-07T12:22:52.782Z,1.60
2019-05-07T12:25:46.091Z,1.60
2019-05-07T12:28:41.812Z,1.75
2019-05-07T12:31:45.513Z,1.70
2019-05-07T12:34:42.390Z,1.95
2019-05-07T12:37:34.952Z,1.50
2019-05-07T12:40:28.781Z,1.72
2019-05-07T12:43:21.838Z,1.87
2019-05-07T12:46:14.889Z,1.92
2019-05-07T12:49:07.941Z,2.17
2019-05-07T12:52:08.430Z,1.10
2019-05-07T12:55:27.851Z,1.80
2019-05-07T12:58:21.831Z,1.52
2019-05-07T13:01:17.034Z,1.80
2019-05-07T13:04:25.196Z,1.75
2019-05-07T13:07:32.569Z,1.60
2019-05-07T13:10:25.386Z,1.12
2019-05-07T13:13:18.443Z,1.80
2019-05-07T13:16:12.853Z,1.47
2019-05-07T13:19:01.890Z,1.80
2019-05-07T13:21:53.513Z,1.92
2019-05-07T13:24:46.312Z,1.80
2019-05-07T13:27:40.221Z,1.82
2019-05-07T13:30:32.174Z,1.85
2019-05-07T13:33:25.738Z,1.87
2019-05-07T13:36:18.538Z,1.20
2019-05-07T13:39:29.511Z,1.70
2019-05-07T13:42:32.173Z,1.90
2019-05-07T13:45:36.361Z,1.92
2019-05-07T13:48:34.280Z,1.80
2019-05-07T13:51:27.084Z,1.60
2019-05-07T13:54:21.823Z,1.90
2019-05-07T13:57:13.192Z,1.57
2019-05-07T14:00:06.503Z,1.72
2019-05-07T14:02:59.826Z,1.72
2019-05-07T14:05:52.616Z,2.10
2019-05-07T14:08:47.988Z,1.40
2019-05-07T14:11:42.354Z,1.50
2019-05-07T14:14:34.592Z,1.40
2019-05-07T14:17:34.823Z,1.90
2019-05-07T14:20:28.138Z,1.80
2019-05-07T14:23:15.559Z,1.72
2019-05-07T14:26:10.409Z,1.50
2019-05-07T14:29:03.465Z,1.62
2019-05-07T14:31:56.524Z,1.25
2019-05-07T14:34:53.830Z,1.00
2019-05-07T14:37:52.371Z,1.30
2019-05-07T14:40:43.879Z,1.62
2019-05-07T14:43:42.055Z,1.25
2019-05-07T14:46:44.481Z,1.32
2019-05-07T14:49:22.505Z,1.40
2019-05-07T14:52:22.618Z,2.33
2019-05-07T14:55:07.880Z,1.57
2019-05-07T14:58:01.888Z,1.52
2019-05-07T15:00:54.509Z,2.10
2019-05-07T15:03:51.570Z,2.10
2019-05-07T15:06:40.885Z,1.55
2019-05-07T15:09:33.671Z,2.00
2019-05-07T15:12:27.241Z,1.77
2019-05-07T15:15:22.012Z,1.50
2019-05-07T15:18:19.501Z,1.57
2019-05-07T15:21:15.368Z,1.60
2019-05-07T15:24:04.819Z,1.70
2019-05-07T15:26:58.151Z,1.50
2019-05-07T15:29:52.666Z,1.57
2019-05-07T15:32:44.523Z,2.67
2019-05-07T15:38:45.228Z,1.77
2019-05-07T15:41:45.705Z,1.60
2019-05-07T15:44:35.196Z,1.82
2019-05-07T15:47:32.078Z,1.30
2019-05-07T15:50:25.383Z,1.40
2019-05-07T15:53:29.723Z,2.00
2019-05-07T15:56:22.759Z,1.37
2019-05-07T15:59:15.822Z,1.72
2019-05-07T16:02:12.327Z,1.80
2019-05-07T16:05:05.189Z,1.40
2019-05-07T16:07:59.078Z,1.80
2019-05-07T16:10:54.703Z,1.75
2019-05-07T16:13:47.752Z,2.30
2019-05-07T16:16:42.784Z,1.80
2019-05-07T16:19:43.336Z,1.57
2019-05-07T16:22:42.275Z,1.72
2019-05-07T16:25:34.571Z,1.50
2019-05-07T16:28:27.629Z,1.62
2019-05-07T16:31:21.940Z,1.55
2019-05-07T16:34:13.996Z,1.50
2019-05-07T16:37:09.365Z,1.40
2019-05-07T16:40:04.537Z,2.08
2019-05-07T16:42:52.395Z,1.52
2019-05-07T16:45:44.941Z,1.60
2019-05-07T16:48:38.250Z,1.50
2019-05-07T16:51:33.016Z,1.57
2019-05-07T16:54:24.368Z,2.02
2019-05-07T16:57:42.246Z,1.60
2019-05-07T17:00:37.886Z,1.98
2019-05-07T17:03:36.551Z,1.90
2019-05-07T17:06:31.912Z,1.70
2019-05-07T17:09:25.227Z,1.82
2019-05-07T17:12:21.943Z,1.80
2019-05-07T17:15:13.388Z,1.98
2019-05-07T17:18:14.127Z,1.87
2019-05-07T17:22:06.204Z,1.95
2019-05-07T17:24:57.832Z,2.00
2019-05-07T17:27:52.131Z,3.12
2019-05-07T17:30:44.711Z,2.40
2019-05-07T17:33:37.769Z,2.08
2019-05-07T17:36:32.873Z,2.20
2019-05-07T17:39:22.674Z,2.12
2019-05-07T17:42:14.638Z,2.12
2019-05-07T17:45:12.292Z,2.37
2019-05-07T17:48:04.333Z,1.92
2019-05-07T17:51:14.795Z,2.58
2019-05-07T17:54:07.849Z,2.30
2019-05-07T17:57:01.985Z,2.25
2019-05-07T17:59:53.961Z,2.20
2019-05-07T18:02:54.694Z,2.98
2019-05-07T18:05:49.289Z,2.40
2019-05-07T18:08:42.352Z,4.35
2019-05-07T18:11:35.663Z,2.55
2019-05-07T18:14:28.980Z,4.08
2019-05-07T18:17:33.614Z,2.65
2019-05-07T18:20:25.065Z,3.55
2019-05-07T18:23:18.122Z,2.08
2019-05-07T18:26:16.431Z,2.55
2019-05-07T18:29:04.999Z,2.05
2019-05-07T18:32:05.224Z,4.60
2019-05-07T18:34:58.281Z,2.10
2019-05-07T18:37:52.686Z,2.15
2019-05-07T18:40:46.440Z,3.80
2019-05-07T18:43:39.498Z,2.22
2019-05-07T18:46:32.851Z,2.72
2019-05-07T18:49:26.124Z,3.05
2019-05-07T18:52:19.945Z,3.40
2019-05-07T18:55:13.262Z,2.75
2019-05-07T18:58:06.842Z,3.52
2019-05-07T19:01:02.655Z,2.75
2019-05-07T19:04:02.669Z,3.52
2019-05-07T19:07:13.046Z,2.58
2019-05-07T19:10:04.135Z,3.17
2019-05-07T19:12:56.939Z,2.25
2019-05-07T19:15:56.624Z,2.10
2019-05-07T19:18:48.423Z,2.83
2019-05-07T19:21:42.298Z,2.60
2019-05-07T19:24:44.316Z,2.47
2019-05-07T19:27:27.594Z,2.70
2019-05-07T19:30:21.771Z,3.15
2019-05-07T19:33:12.301Z,3.35
2019-05-07T19:36:03.703Z,2.60
2019-05-07T19:38:57.768Z,3.08
2019-05-07T19:41:52.454Z,2.50
2019-05-07T19:44:47.976Z,3.15
2019-05-07T19:47:42.767Z,4.37
2019-05-07T19:50:34.346Z,2.55
2019-05-07T19:53:32.538Z,2.77
2019-05-07T19:56:28.393Z,2.47
2019-05-07T19:59:22.470Z,2.30
2019-05-07T20:02:16.039Z,2.52
2019-05-07T20:05:12.012Z,2.62
2019-05-07T20:08:04.691Z,2.40
2019-05-07T20:11:02.683Z,2.62
2019-05-07T20:13:55.434Z,2.27
2019-05-07T20:16:48.488Z,3.02
2019-05-07T20:22:47.661Z,2.75
2019-05-07T20:25:42.056Z,2.80
2019-05-07T20:28:28.140Z,2.70
2019-05-07T20:31:28.616Z,3.22
2019-05-07T20:34:22.187Z,2.90
2019-05-07T20:37:25.486Z,2.92
2019-05-07T20:40:22.689Z,2.85
2019-05-07T20:43:14.670Z,3.05
2019-05-07T20:46:07.720Z,3.08
2019-05-07T20:49:02.860Z,2.75
2019-05-07T20:52:01.777Z,3.20
2019-05-07T20:55:09.931Z,2.45
2019-05-07T20:58:12.698Z,2.62
2019-05-07T21:01:02.897Z,3.00
2019-05-07T21:04:04.582Z,2.98
2019-05-07T21:06:54.702Z,3.15
2019-05-07T21:09:47.512Z,2.95
2019-05-07T21:12:48.236Z,3.30
2019-05-07T21:15:42.831Z,3.47
2019-05-07T21:18:36.140Z,2.62
2019-05-07T21:21:25.493Z,3.02
2019-05-07T21:24:22.552Z,2.72
2019-05-07T21:27:12.261Z,3.30
2019-05-07T21:30:04.009Z,3.95
2019-05-07T21:32:58.361Z,3.12
2019-05-07T21:35:52.258Z,4.00
2019-05-07T21:38:51.855Z,2.92
2019-05-07T21:41:44.682Z,2.85
2019-05-07T21:44:37.739Z,3.35
2019-05-07T21:47:32.661Z,2.90
2019-05-07T21:50:21.886Z,2.80
2019-05-07T21:53:16.908Z,3.27
2019-05-07T21:56:29.930Z,2.83
2019-05-07T21:59:26.314Z,2.67
2019-05-07T22:02:24.488Z,2.08
2019-05-07T22:05:17.801Z,2.17
2019-05-07T22:08:12.484Z,3.05
2019-05-07T22:11:02.466Z,2.70
2019-05-07T22:14:07.470Z,2.58
2019-05-07T22:17:02.058Z,2.35
2019-05-07T22:20:03.034Z,2.60
2019-05-07T22:22:54.312Z,2.50
2019-05-07T22:25:47.881Z,2.30
2019-05-07T22:28:41.949Z,1.87
2019-05-07T22:31:53.080Z,1.95
2019-05-07T22:34:59.047Z,1.75
2019-05-07T22:38:03.910Z,2.20
2019-05-07T22:41:10.246Z,2.00
2019-05-07T22:44:03.048Z,2.00
2019-05-07T22:46:58.919Z,2.00
2019-05-07T22:49:53.611Z,1.92
2019-05-07T22:52:56.297Z,2.17
2019-05-07T22:56:03.009Z,1.52
2019-05-07T22:58:57.774Z,2.17
2019-05-07T23:01:51.646Z,2.20
2019-05-07T23:04:43.880Z,1.98
2019-05-07T23:07:36.936Z,1.98
2019-05-07T23:10:30.504Z,2.10
2019-05-07T23:13:26.887Z,1.92
2019-05-07T23:16:23.256Z,2.30
2019-05-07T23:19:16.839Z,2.25
2019-05-07T23:22:13.388Z,2.02
2019-05-07T23:25:07.050Z,2.05
2019-05-07T23:28:04.963Z,2.25
2019-05-07T23:30:53.416Z,2.12
2019-05-07T23:33:46.728Z,2.37
2019-05-07T23:36:39.783Z,2.00
2019-05-07T23:39:32.839Z,2.05
2019-05-07T23:42:32.039Z,2.45
2019-05-07T23:45:28.247Z,2.12
2019-05-07T23:48:17.900Z,2.27
2019-05-07T23:51:18.638Z,2.30
2019-05-07T23:54:12.286Z,2.25
2019-05-07T23:57:08.817Z,2.52
2019-05-07T23:59:57.802Z,2.62
